Time;durP1;ratioP1;P1;durP2;ratioP2;P2;SDS_P1;SDS_P2;PMS_P1;PMS_P2;Temp;Humidity;BMP_temperature;BMP_pressure;BME280_temperature;BME280_humidity;BME280_pressure;Samples;Min_cycle;Max_cycle;Signal;HPM_P1;HPM_P2
2021/01/08 00:02:16;;;;;;;33.25;15.43;;;;;;;0.40;76.08;95981.06;5072834;28;20098;-74
2021/01/08 00:04:42;;;;;;;32.63;15.95;;;;;;;0.40;75.63;95976.50;5072450;28;20508;-74
2021/01/08 00:07:08;;;;;;;30.63;14.75;;;;;;;0.41;75.35;95979.97;5072639;28;20044;-73
2021/01/08 00:09:34;;;;;;;30.52;14.25;;;;;;;0.43;75.51;95975.19;5072610;28;20499;-73
2021/01/08 00:12:01;;;;;;;30.48;15.00;;;;;;;0.46;75.49;95974.63;5072684;28;20158;-73
2021/01/08 00:14:27;;;;;;;30.17;15.35;;;;;;;0.50;75.44;95978.41;5064478;28;20063;-73
2021/01/08 00:16:54;;;;;;;30.25;15.50;;;;;;;0.49;75.44;95969.56;5058448;28;20671;-73
2021/01/08 00:19:19;;;;;;;27.38;13.77;;;;;;;0.53;75.52;95969.84;5052663;28;20056;-74
2021/01/08 00:21:46;;;;;;;33.92;15.77;;;;;;;0.32;75.67;95968.97;5051828;28;20145;-74
2021/01/08 00:24:13;;;;;;;29.55;14.13;;;;;;;0.32;75.75;95970.88;5052578;28;20068;-73
2021/01/08 00:26:40;;;;;;;28.98;14.27;;;;;;;0.34;75.72;95971.38;5051656;28;20049;-74
2021/01/08 00:29:06;;;;;;;33.95;15.73;;;;;;;0.33;75.74;95964.44;5052366;28;20048;-73
2021/01/08 00:31:37;;;;;;;32.33;15.98;;;;;;;0.32;75.88;95968.97;5052115;28;20045;-74
2021/01/08 00:34:05;;;;;;;31.35;14.98;;;;;;;0.33;75.92;95964.44;5051933;28;20053;-74
2021/01/08 00:36:31;;;;;;;30.65;15.20;;;;;;;0.39;75.91;95966.06;5052376;28;20397;-73
2021/01/08 00:38:57;;;;;;;31.40;14.60;;;;;;;0.44;76.11;95960.72;5052358;28;20044;-73
2021/01/08 00:41:28;;;;;;;29.50;14.63;;;;;;;0.46;75.90;95951.34;5072031;28;20045;-73
2021/01/08 00:43:54;;;;;;;30.05;14.02;;;;;;;0.48;76.03;95956.44;5071567;28;20539;-74
2021/01/08 00:46:20;;;;;;;29.90;14.40;;;;;;;0.47;75.96;95955.66;5063085;28;20068;-74
2021/01/08 00:48:47;;;;;;;31.27;15.80;;;;;;;0.50;76.08;95954.31;5051388;28;20532;-74
2021/01/08 00:51:14;;;;;;;29.38;14.57;;;;;;;0.46;75.84;95953.22;5051899;28;20045;-74
2021/01/08 00:53:40;;;;;;;30.45;15.25;;;;;;;0.48;75.70;95956.44;5051511;28;20044;-74
2021/01/08 00:56:16;;;;;;;33.35;15.38;;;;;;;0.44;75.46;95950.00;5051748;28;20071;-73
2021/01/08 00:58:42;;;;;;;31.60;14.52;;;;;;;0.46;75.45;95953.22;5052236;28;20064;-74
2021/01/08 01:01:08;;;;;;;34.38;15.48;;;;;;;0.46;75.63;95963.91;5051024;28;20052;-73
2021/01/08 01:03:34;;;;;;;29.27;14.38;;;;;;;0.51;75.80;95963.94;5052070;28;20132;-73
2021/01/08 01:06:00;;;;;;;30.52;14.07;;;;;;;0.51;75.10;95955.91;5051220;28;20455;-74
2021/01/08 01:08:27;;;;;;;33.83;15.57;;;;;;;0.46;75.12;95962.03;5051752;28;20052;-74
2021/01/08 01:10:53;;;;;;;27.70;14.48;;;;;;;0.47;75.20;95965.53;5051087;28;20048;-74
2021/01/08 01:13:19;;;;;;;32.03;14.43;;;;;;;0.27;75.57;95968.16;5051674;28;20068;-74
2021/01/08 01:15:45;;;;;;;33.33;15.40;;;;;;;0.16;75.93;95970.78;5048931;28;20045;-74
2021/01/08 01:18:11;;;;;;;34.22;14.73;;;;;;;0.08;76.34;95973.97;5051260;28;20132;-74
2021/01/08 01:20:37;;;;;;;31.05;14.75;;;;;;;0.09;76.21;95974.75;5051253;28;20412;-74
2021/01/08 01:23:03;;;;;;;32.15;15.85;;;;;;;-0.06;76.33;95978.16;5050811;28;20045;-73
2021/01/08 01:25:30;;;;;;;29.30;14.52;;;;;;;-0.13;76.57;95982.94;5051176;28;20041;-73
2021/01/08 01:27:56;;;;;;;37.33;16.13;;;;;;;-0.22;76.97;95981.81;5051050;28;20049;-74
2021/01/08 01:30:23;;;;;;;28.27;14.77;;;;;;;-0.20;77.06;95987.72;5051373;28;20111;-74
2021/01/08 01:32:49;;;;;;;31.05;15.52;;;;;;;-0.18;77.14;95985.59;5050671;28;20040;-73
2021/01/08 01:35:15;;;;;;;31.77;14.75;;;;;;;-0.19;77.14;95984.78;5051372;28;20049;-74
2021/01/08 01:37:41;;;;;;;31.98;15.45;;;;;;;-0.16;76.93;95984.25;5050589;28;20056;-73
2021/01/08 01:40:08;;;;;;;33.42;15.60;;;;;;;-0.14;76.83;95982.16;5051080;28;20052;-73
2021/01/08 01:42:34;;;;;;;30.88;15.85;;;;;;;-0.20;76.94;95983.19;5050687;28;20060;-73
2021/01/08 01:45:00;;;;;;;31.20;14.95;;;;;;;-0.09;76.66;95978.69;5048806;28;20049;-74
2021/01/08 01:47:28;;;;;;;31.45;15.27;;;;;;;-0.11;76.26;95984.28;5051350;28;20041;-74
2021/01/08 01:49:54;;;;;;;31.10;15.80;;;;;;;-0.11;76.55;95976.25;5050676;28;20393;-73
2021/01/08 01:52:21;;;;;;;31.05;14.45;;;;;;;-0.16;76.73;95975.44;5050705;28;20059;-74
2021/01/08 01:54:47;;;;;;;32.75;15.60;;;;;;;-0.05;76.59;95974.44;5050039;28;20049;-74
2021/01/08 01:57:13;;;;;;;32.33;15.60;;;;;;;0.05;76.31;95976.34;5050585;28;20052;-74
2021/01/08 01:59:39;;;;;;;28.70;15.10;;;;;;;0.14;76.18;95977.47;5050246;28;20127;-74
2021/01/08 02:02:17;;;;;;;31.80;15.45;;;;;;;0.13;75.92;95979.34;5050290;28;20650;-73
2021/01/08 02:04:44;;;;;;;29.35;14.05;;;;;;;0.21;75.71;95978.84;5049703;28;20055;-74
2021/01/08 02:07:10;;;;;;;34.75;14.45;;;;;;;0.28;75.64;95985.84;5050352;28;20044;-73
2021/01/08 02:09:37;;;;;;;28.92;14.73;;;;;;;0.34;75.48;95976.75;5050633;28;20041;-74
2021/01/08 02:12:04;;;;;;;28.60;14.10;;;;;;;0.40;75.27;95981.84;5050020;28;20052;-73
2021/01/08 02:14:30;;;;;;;31.13;15.05;;;;;;;0.39;75.10;95979.44;5050934;28;20056;-74
2021/01/08 02:16:59;;;;;;;32.05;15.20;;;;;;;0.23;75.32;95979.38;5051104;28;20048;-73
2021/01/08 02:19:30;;;;;;;28.40;15.45;;;;;;;0.08;75.83;95992.69;5050639;28;20041;-74
2021/01/08 02:22:00;;;;;;;29.77;15.38;;;;;;;0.04;76.02;95991.59;5048731;28;20472;-73
2021/01/08 02:24:31;;;;;;;30.83;15.38;;;;;;;-0.02;76.39;95989.97;5050627;28;20041;-74
2021/01/08 02:26:58;;;;;;;30.98;15.70;;;;;;;-0.16;76.84;95986.13;5050609;28;20393;-74
2021/01/08 02:29:26;;;;;;;31.35;15.52;;;;;;;-0.22;77.12;95990.66;5050001;28;20045;-74
2021/01/08 02:31:52;;;;;;;29.70;14.98;;;;;;;-0.29;77.38;95985.53;5050157;28;20128;-74
2021/01/08 02:34:18;;;;;;;31.38;15.57;;;;;;;-0.40;77.76;95983.84;5049550;28;20052;-74
2021/01/08 02:36:46;;;;;;;34.90;15.93;;;;;;;-0.33;77.79;95983.63;5050497;28;20048;-74
2021/01/08 02:39:12;;;;;;;33.78;15.85;;;;;;;-0.45;78.01;95975.78;5064486;28;20048;-73
2021/01/08 02:41:42;;;;;;;32.13;15.50;;;;;;;-0.57;78.24;95985.88;5071097;28;20075;-74
2021/01/08 02:44:10;;;;;;;33.05;16.50;;;;;;;-0.58;78.58;95989.59;5069047;28;20048;-73
2021/01/08 02:46:36;;;;;;;34.08;16.25;;;;;;;-0.51;78.54;95990.19;5054651;28;20103;-74
2021/01/08 02:49:02;;;;;;;33.33;16.33;;;;;;;-0.45;77.90;95986.50;5049155;28;20539;-73
2021/01/08 02:51:28;;;;;;;31.58;14.77;;;;;;;-0.45;77.89;95986.50;5050429;28;20045;-74
2021/01/08 02:53:58;;;;;;;29.10;14.32;;;;;;;-0.39;77.84;95984.66;5049917;28;20111;-73
2021/01/08 02:56:31;;;;;;;37.55;18.13;;;;;;;-0.42;77.74;95980.63;5049602;28;20615;-74
2021/01/08 02:58:58;;;;;;;35.88;16.20;;;;;;;-0.31;77.18;95984.19;5050260;28;20064;-74
2021/01/08 03:01:26;;;;;;;37.55;17.05;;;;;;;-0.36;77.06;95976.94;5049150;28;20443;-73
2021/01/08 03:03:52;;;;;;;34.60;16.90;;;;;;;-0.36;77.28;95979.59;5050334;28;20045;-74
2021/01/08 03:06:18;;;;;;;35.05;16.58;;;;;;;-0.27;76.92;95971.88;5048828;28;20053;-74
2021/01/08 03:08:45;;;;;;;31.58;16.17;;;;;;;-0.20;76.81;95983.19;5050621;28;20052;-74
2021/01/08 03:11:11;;;;;;;31.05;15.55;;;;;;;-0.25;76.69;95985.84;5048805;28;20037;-73
2021/01/08 03:13:39;;;;;;;37.25;16.73;;;;;;;-0.34;76.72;95972.13;5050241;28;20099;-73
2021/01/08 03:16:06;;;;;;;40.00;16.45;;;;;;;-0.30;76.82;95980.44;5050977;28;20045;-73
2021/01/08 03:18:33;;;;;;;34.42;16.00;;;;;;;-0.28;77.00;95979.09;5049753;28;20052;-73
2021/01/08 03:20:59;;;;;;;34.70;16.80;;;;;;;-0.24;76.98;95983.97;5050048;28;20041;-74
2021/01/08 03:23:25;;;;;;;35.53;16.40;;;;;;;-0.15;76.88;95975.19;5048876;28;20106;-74
2021/01/08 03:25:51;;;;;;;32.72;16.08;;;;;;;-0.29;77.21;95980.19;5049941;28;20116;-73
2021/01/08 03:28:17;;;;;;;35.38;16.27;;;;;;;-0.27;77.47;95982.59;5048543;28;20136;-74
2021/01/08 03:30:43;;;;;;;31.67;15.27;;;;;;;-0.26;77.45;95973.53;5050379;28;20072;-73
2021/01/08 03:33:09;;;;;;;34.15;16.05;;;;;;;-0.42;77.93;95975.25;5051793;28;20503;-74
2021/01/08 03:35:36;;;;;;;33.88;15.65;;;;;;;-0.38;77.97;95976.38;5053954;28;20041;-74
2021/01/08 03:38:02;;;;;;;29.92;14.07;;;;;;;-0.32;77.82;95969.97;5052670;28;20056;-74
2021/01/08 03:40:28;;;;;;;32.50;16.00;;;;;;;-0.37;77.53;95977.97;5053432;28;20045;-73
2021/01/08 03:42:54;;;;;;;33.70;15.43;;;;;;;-0.41;77.94;95982.25;5053372;28;20496;-73
2021/01/08 03:45:20;;;;;;;31.05;16.00;;;;;;;-0.50;77.97;95983.78;5054427;28;20052;-73
2021/01/08 03:47:46;;;;;;;32.85;15.80;;;;;;;-0.57;78.06;95969.84;5053519;28;20136;-74
2021/01/08 03:50:12;;;;;;;34.10;16.00;;;;;;;-0.63;78.29;95978.84;5052229;28;20516;-74
2021/01/08 03:52:39;;;;;;;32.50;15.65;;;;;;;-0.67;78.05;95973.25;5053607;28;20049;-74
2021/01/08 03:55:07;;;;;;;32.03;15.40;;;;;;;-0.67;78.16;95970.56;5051958;28;20041;-73
2021/01/08 03:57:33;;;;;;;30.88;14.73;;;;;;;-0.66;78.14;95969.50;5053739;28;20049;-74
2021/01/08 03:59:59;;;;;;;30.80;15.05;;;;;;;-0.58;78.16;95965.53;5052428;28;20076;-73
2021/01/08 04:02:25;;;;;;;34.40;15.82;;;;;;;-0.52;77.79;95967.19;5053014;28;20076;-74
2021/01/08 04:04:51;;;;;;;30.15;15.10;;;;;;;-0.38;77.47;95971.03;5052626;28;20051;-74
2021/01/08 04:07:17;;;;;;;30.63;16.33;;;;;;;-0.46;77.34;95963.50;5052498;28;20049;-74
2021/01/08 04:09:43;;;;;;;32.78;15.73;;;;;;;-0.50;77.31;95962.38;5052987;28;20045;-73
2021/01/08 04:12:09;;;;;;;32.45;15.52;;;;;;;-0.48;77.28;95965.59;5051928;28;20052;-73
2021/01/08 04:14:35;;;;;;;33.00;15.52;;;;;;;-0.53;77.54;95963.69;5054243;28;20044;-74
2021/01/08 04:17:01;;;;;;;33.13;16.48;;;;;;;-0.51;77.45;95963.47;5071138;28;20377;-73
2021/01/08 04:19:27;;;;;;;32.75;15.52;;;;;;;-0.59;77.56;95966.59;5073288;28;20075;-74
2021/01/08 04:21:53;;;;;;;33.65;16.65;;;;;;;-0.50;77.37;95969.59;5072135;28;20049;-73
2021/01/08 04:24:19;;;;;;;30.48;14.95;;;;;;;-0.43;77.32;95965.63;5072648;28;20070;-74
2021/01/08 04:26:46;;;;;;;38.78;16.25;;;;;;;-0.36;77.10;95974.25;5071969;28;20041;-73
2021/01/08 04:29:12;;;;;;;32.88;15.75;;;;;;;-0.34;76.75;95965.97;5072374;28;20539;-74
2021/01/08 04:31:40;;;;;;;32.60;16.05;;;;;;;-0.30;76.72;95973.22;5072262;28;20562;-74
2021/01/08 04:34:06;;;;;;;29.17;15.27;;;;;;;-0.22;76.38;95977.28;5071955;28;20056;-74
2021/01/08 04:36:32;;;;;;;32.80;15.80;;;;;;;-0.31;76.35;95976.97;5072376;28;20124;-74
2021/01/08 04:38:58;;;;;;;32.33;15.70;;;;;;;-0.33;76.41;95978.28;5071786;28;20049;-74
2021/01/08 04:41:24;;;;;;;32.00;16.20;;;;;;;-0.22;76.55;95973.78;5072317;28;20443;-74
2021/01/08 04:43:51;;;;;;;31.67;15.45;;;;;;;-0.19;76.38;95975.97;5070726;28;20499;-73
2021/01/08 04:46:19;;;;;;;33.97;16.70;;;;;;;-0.17;76.27;95981.84;5059151;28;20064;-73
2021/01/08 04:48:46;;;;;;;32.50;15.27;;;;;;;-0.25;76.17;95985.84;5052555;28;20049;-74
2021/01/08 04:51:15;;;;;;;31.02;15.05;;;;;;;-0.25;76.46;95985.03;5052179;28;20577;-73
2021/01/08 04:53:41;;;;;;;37.47;17.48;;;;;;;-0.34;77.05;95982.81;5051763;28;20052;-73
2021/01/08 04:56:10;;;;;;;36.88;16.17;;;;;;;-0.37;77.41;95977.16;5051667;28;20080;-73
2021/01/08 04:58:36;;;;;;;34.90;16.42;;;;;;;-0.43;77.62;95984.34;5051928;28;20674;-74
2021/01/08 05:01:04;;;;;;;33.63;16.02;;;;;;;-0.39;77.80;95973.97;5051239;28;20053;-73
2021/01/08 05:03:30;;;;;;;33.13;16.13;;;;;;;-0.39;77.80;95974.75;5052322;28;20045;-73
2021/01/08 05:05:57;;;;;;;33.15;15.63;;;;;;;-0.37;77.79;95980.66;5051093;28;20045;-73
2021/01/08 05:08:23;;;;;;;33.78;17.25;;;;;;;-0.34;77.40;95982.81;5051942;28;20048;-73
2021/01/08 05:10:50;;;;;;;33.65;15.75;;;;;;;-0.39;77.34;95980.13;5051375;28;20159;-73
2021/01/08 05:13:16;;;;;;;32.47;15.15;;;;;;;-0.35;77.08;95986.56;5051778;28;20048;-73
2021/01/08 05:15:50;;;;;;;31.15;14.55;;;;;;;-0.36;77.31;95979.59;5053065;28;20077;-73
2021/01/08 05:18:17;;;;;;;30.60;14.80;;;;;;;-0.21;77.08;95980.75;5051212;28;20045;-73
2021/01/08 05:20:43;;;;;;;29.25;14.55;;;;;;;-0.12;76.68;95979.19;5051766;28;20052;-73
2021/01/08 05:23:10;;;;;;;31.00;15.00;;;;;;;-0.13;76.18;95980.28;5050824;28;20060;-73
2021/01/08 05:25:36;;;;;;;32.47;15.52;;;;;;;-0.11;76.35;95986.16;5051508;28;20069;-73
2021/01/08 05:28:05;;;;;;;30.95;15.48;;;;;;;-0.12;76.30;95984.56;5050475;28;20437;-73
2021/01/08 05:30:31;;;;;;;32.33;15.90;;;;;;;-0.07;75.99;95976.56;5051929;28;20099;-74
2021/01/08 05:32:58;;;;;;;34.55;15.90;;;;;;;-0.10;75.90;95983.25;5050658;28;20045;-73
2021/01/08 05:35:28;;;;;;;30.88;14.68;;;;;;;-0.19;75.86;95984.00;5051395;28;20538;-73
2021/01/08 05:37:55;;;;;;;34.70;15.98;;;;;;;-0.17;75.97;95981.84;5050828;28;20109;-74
2021/01/08 05:40:28;;;;;;;37.60;16.75;;;;;;;-0.24;75.98;95986.63;5050906;28;20040;-73
2021/01/08 05:42:55;;;;;;;34.28;15.80;;;;;;;-0.35;76.29;95975.88;5051234;28;20045;-73
2021/01/08 05:45:22;;;;;;;33.97;15.77;;;;;;;-0.37;76.45;95977.97;5057528;28;20053;-73
2021/01/08 05:47:50;;;;;;;34.85;15.93;;;;;;;-0.45;76.88;95975.78;5071343;28;20044;-73
2021/01/08 05:50:19;;;;;;;35.80;17.10;;;;;;;-0.43;76.81;95979.00;5069945;28;20079;-73
2021/01/08 05:52:49;;;;;;;35.42;16.65;;;;;;;-0.49;76.99;95985.38;5071573;28;20053;-73
2021/01/08 05:55:16;;;;;;;36.85;16.70;;;;;;;-0.52;76.88;95985.91;5070280;28;20745;-74
2021/01/08 05:57:42;;;;;;;37.00;16.50;;;;;;;-0.58;77.20;95989.59;5071375;28;20055;-73
2021/01/08 06:00:09;;;;;;;35.05;16.80;;;;;;;-0.48;77.32;95992.34;5069782;28;20055;-73
2021/01/08 06:02:36;;;;;;;35.30;17.27;;;;;;;-0.53;77.04;95994.97;5070884;28;20049;-73
2021/01/08 06:05:05;;;;;;;34.53;16.45;;;;;;;-0.59;77.40;95988.00;5069915;28;20101;-73
2021/01/08 06:07:36;;;;;;;34.50;15.40;;;;;;;-0.53;77.36;95994.97;5070571;28;20049;-73
2021/01/08 06:10:05;;;;;;;32.80;15.98;;;;;;;-0.55;77.33;95999.78;5070575;28;20097;-73
2021/01/08 06:12:35;;;;;;;34.78;16.55;;;;;;;-0.41;77.31;95998.31;5069929;28;20051;-73
2021/01/08 06:15:02;;;;;;;33.95;15.60;;;;;;;-0.43;77.22;95995.06;5068381;28;20070;-73
2021/01/08 06:17:28;;;;;;;35.35;15.90;;;;;;;-0.45;77.04;96002.53;5049813;28;20045;-73
2021/01/08 06:20:02;;;;;;;32.78;15.73;;;;;;;-0.49;77.23;96006.78;5051103;28;20052;-73
2021/01/08 06:22:35;;;;;;;36.50;16.02;;;;;;;-0.38;77.08;96003.13;5049990;28;20488;-73
2021/01/08 06:25:01;;;;;;;;;;;;;;;-0.31;76.96;96003.72;5049994;28;20389;-73
2021/01/08 06:27:32;;;;;;;33.00;14.27;;;;;;;-0.27;76.93;96004.00;5050562;28;20015;-74
2021/01/08 06:29:59;;;;;;;37.17;16.55;;;;;;;-0.25;76.89;96006.44;5050114;28;20045;-73
2021/01/08 06:32:29;;;;;;;32.13;15.52;;;;;;;-0.23;76.89;96009.66;5050205;28;20067;-73
2021/01/08 06:35:03;;;;;;;34.70;16.45;;;;;;;-0.06;76.61;96015.63;5050440;28;20106;-73
2021/01/08 06:37:37;;;;;;;30.83;15.27;;;;;;;-0.11;76.31;96002.22;5069436;28;20050;-73
2021/01/08 06:40:05;;;;;;;34.20;15.63;;;;;;;-0.13;76.26;96004.34;5069445;28;20049;-73
2021/01/08 06:42:32;;;;;;;29.58;14.10;;;;;;;-0.12;76.44;96008.63;5070447;28;20098;-73
2021/01/08 06:44:59;;;;;;;31.00;14.70;;;;;;;-0.06;75.94;96011.09;5066842;28;20060;-73
2021/01/08 06:47:28;;;;;;;31.45;14.98;;;;;;;0.04;75.94;96007.66;5049547;28;20041;-73
2021/01/08 06:49:57;;;;;;;30.42;14.32;;;;;;;-0.06;75.80;96007.59;5050209;28;20053;-74
2021/01/08 06:52:24;;;;;;;33.05;15.05;;;;;;;0.02;75.47;96006.31;5049081;28;20111;-73
2021/01/08 06:54:53;;;;;;;28.95;14.00;;;;;;;-0.11;75.62;96013.72;5050655;28;20056;-74
2021/01/08 06:57:21;;;;;;;28.27;13.85;;;;;;;-0.12;75.79;96016.66;5049054;28;20557;-73
2021/01/08 06:59:55;;;;;;;28.95;14.40;;;;;;;-0.22;75.69;96012.06;5050737;28;20111;-73
2021/01/08 07:02:23;;;;;;;29.75;14.07;;;;;;;-0.25;76.13;96017.13;5050228;28;20040;-73
2021/01/08 07:04:50;;;;;;;31.23;14.90;;;;;;;-0.34;76.17;96016.78;5049995;28;20041;-73
2021/01/08 07:07:22;;;;;;;27.08;13.38;;;;;;;-0.27;76.31;96020.84;5051387;28;20067;-73
2021/01/08 07:09:48;;;;;;;30.10;13.65;;;;;;;-0.18;76.00;96023.06;5053814;28;20057;-73
2021/01/08 07:12:14;;;;;;;28.52;14.32;;;;;;;-0.25;76.01;96028.66;5053847;28;20060;-73
2021/01/08 07:14:40;;;;;;;29.83;14.18;;;;;;;-0.32;76.31;96023.50;5054892;28;20394;-73
2021/01/08 07:17:09;;;;;;;28.95;13.57;;;;;;;-0.33;76.37;96027.22;5054087;28;20045;-73
2021/01/08 07:19:39;;;;;;;30.98;14.13;;;;;;;-0.44;76.41;96032.78;5053158;28;20559;-74
2021/01/08 07:22:05;;;;;;;30.27;14.15;;;;;;;-0.40;76.59;96037.34;5053928;28;20056;-73
2021/01/08 07:24:34;;;;;;;28.20;13.30;;;;;;;-0.32;76.02;96039.53;5052882;28;20051;-73
2021/01/08 07:27:22;;;;;;;28.27;13.95;;;;;;;-0.30;76.08;96040.09;5053838;28;20056;-73
2021/01/08 07:29:50;;;;;;;30.98;13.63;;;;;;;-0.22;75.88;96038.00;5048915;28;20041;-73
2021/01/08 07:32:31;;;;;;;29.02;13.30;;;;;;;-0.18;75.83;96044.47;5052868;28;20443;-73
2021/01/08 07:34:57;;;;;;;28.45;13.95;;;;;;;-0.11;75.54;96050.38;5053911;28;20041;-74
2021/01/08 07:37:57;;;;;;;28.00;14.75;;;;;;;-0.11;75.80;96051.19;5052548;28;20049;-73
2021/01/08 07:40:23;;;;;;;27.92;13.13;;;;;;;-0.02;75.32;96054.22;5053102;28;20049;-73
2021/01/08 07:42:57;;;;;;;29.38;13.30;;;;;;;0.10;75.22;96052.13;5053300;28;20053;-74
2021/01/08 07:45:23;;;;;;;26.50;13.68;;;;;;;0.21;74.98;96061.06;5054247;28;20060;-73
2021/01/08 07:47:50;;;;;;;27.67;13.00;;;;;;;0.23;74.54;96065.06;5053690;28;20412;-74
2021/01/08 07:50:17;;;;;;;26.60;13.70;;;;;;;0.22;74.31;96060.78;5052219;28;20045;-73
2021/01/08 07:52:45;;;;;;;25.63;12.95;;;;;;;0.23;74.53;96069.63;5053908;28;20059;-73
2021/01/08 07:55:12;;;;;;;30.05;13.63;;;;;;;0.22;74.35;96071.50;5052294;28;20053;-74
2021/01/08 07:58:03;;;;;;;27.05;12.38;;;;;;;0.20;74.43;96070.94;5053800;28;20052;-73
2021/01/08 08:00:31;;;;;;;29.70;12.65;;;;;;;0.19;74.51;96074.69;5037707;28;20492;-73
2021/01/08 08:02:59;;;;;;;29.40;13.73;;;;;;;0.18;74.55;96075.75;5052698;28;20052;-73
2021/01/08 08:05:26;;;;;;;25.65;12.95;;;;;;;0.12;74.80;96082.16;5052707;28;20044;-74
2021/01/08 08:07:55;;;;;;;28.23;13.70;;;;;;;0.09;74.94;96082.66;5052474;28;20049;-74
2021/01/08 08:10:25;;;;;;;28.40;14.45;;;;;;;0.22;74.83;96082.22;5053021;28;20041;-73
2021/01/08 08:12:52;;;;;;;29.63;13.88;;;;;;;0.30;74.46;96082.78;5052301;28;20523;-74
2021/01/08 08:15:18;;;;;;;32.65;13.80;;;;;;;0.22;74.70;96082.22;5054560;28;20057;-73
2021/01/08 08:17:45;;;;;;;27.75;13.15;;;;;;;0.16;74.71;96077.91;5051653;28;20512;-73
2021/01/08 08:20:22;;;;;;;27.70;14.15;;;;;;;0.18;74.73;96086.47;5051923;28;20412;-73
2021/01/08 08:22:49;;;;;;;25.88;13.15;;;;;;;0.29;74.35;96084.66;5052606;28;20052;-74
2021/01/08 08:25:28;;;;;;;29.33;14.38;;;;;;;0.23;74.29;96088.38;5051751;28;20056;-73
2021/01/08 08:27:55;;;;;;;27.52;14.23;;;;;;;0.14;74.72;96085.38;5052991;28;20048;-73
2021/01/08 08:30:23;;;;;;;25.30;13.07;;;;;;;0.19;74.44;96087.28;5051465;28;20137;-74
2021/01/08 08:32:49;;;;;;;28.63;13.68;;;;;;;0.15;74.48;96086.16;5053206;28;20466;-74
2021/01/08 08:35:16;;;;;;;28.33;14.25;;;;;;;0.13;74.54;96094.47;5051597;28;20049;-73
2021/01/08 08:37:53;;;;;;;28.67;14.10;;;;;;;0.00;75.02;96094.94;5052818;28;20044;-73
2021/01/08 08:40:24;;;;;;;33.85;14.82;;;;;;;0.06;75.04;96093.91;5051634;28;20041;-74
2021/01/08 08:42:54;;;;;;;28.88;13.75;;;;;;;0.06;75.05;96099.25;5052077;28;20522;-73
2021/01/08 08:45:22;;;;;;;28.13;13.40;;;;;;;-0.01;75.10;96093.28;5053691;28;20045;-74
2021/01/08 08:47:49;;;;;;;27.63;14.43;;;;;;;0.06;75.08;96095.75;5051395;28;20052;-73
2021/01/08 08:50:16;;;;;;;30.13;14.90;;;;;;;0.12;74.79;96098.22;5068374;28;20040;-74
2021/01/08 08:52:42;;;;;;;31.08;15.15;;;;;;;0.12;74.43;96098.22;5071497;28;20075;-74
2021/01/08 08:55:24;;;;;;;30.13;13.85;;;;;;;0.31;73.87;96090.53;5071886;28;20056;-74
2021/01/08 08:57:50;;;;;;;29.33;14.43;;;;;;;0.49;73.47;96086.66;5071485;28;20048;-74
2021/01/08 09:00:19;;;;;;;29.95;14.07;;;;;;;0.43;73.37;96088.50;5071590;28;20044;-74
2021/01/08 09:02:45;;;;;;;29.30;13.55;;;;;;;0.58;73.11;96082.41;5071738;28;20047;-74
2021/01/08 09:05:11;;;;;;;27.27;13.85;;;;;;;0.52;73.15;96086.09;5071177;28;20135;-74
2021/01/08 09:07:40;;;;;;;29.92;14.73;;;;;;;0.67;73.41;96094.22;5072161;28;20049;-74
2021/01/08 09:10:13;;;;;;;28.33;13.95;;;;;;;0.94;72.61;96082.53;5070239;28;20048;-74
2021/01/08 09:12:43;;;;;;;28.35;13.35;;;;;;;1.22;72.13;96084.75;5072390;28;20052;-74
2021/01/08 09:15:17;;;;;;;25.52;12.68;;;;;;;1.33;70.83;96084.78;5066520;28;20045;-74
2021/01/08 09:17:47;;;;;;;26.65;13.00;;;;;;;1.45;70.39;96088.00;5052228;28;20511;-74
2021/01/08 09:20:15;;;;;;;28.45;13.90;;;;;;;1.55;69.99;96096.88;5050808;28;20412;-74
2021/01/08 09:22:41;;;;;;;27.02;14.10;;;;;;;1.42;70.13;96092.03;5051533;28;20455;-74
2021/01/08 09:25:09;;;;;;;25.92;12.38;;;;;;;1.59;69.95;96094.47;5050702;28;20045;-74
2021/01/08 09:27:36;;;;;;;23.33;12.30;;;;;;;1.43;70.05;96092.84;5051268;28;20049;-74
2021/01/08 09:30:13;;;;;;;25.90;12.93;;;;;;;1.29;70.49;96100.59;5049585;28;20091;-74
2021/01/08 09:32:39;;;;;;;25.25;12.63;;;;;;;1.40;70.60;96091.50;5050260;28;20056;-74
2021/01/08 09:35:08;;;;;;;21.70;12.05;;;;;;;1.47;69.92;96096.63;5053366;28;20056;-74
2021/01/08 09:37:39;;;;;;;22.90;12.57;;;;;;;1.34;69.99;96097.91;5050429;28;20072;-74
2021/01/08 09:40:14;;;;;;;22.17;12.18;;;;;;;1.18;70.84;96097.09;5050666;28;20140;-74
2021/01/08 09:42:41;;;;;;;23.67;11.32;;;;;;;1.15;70.95;96100.31;5051009;28;20044;-74
2021/01/08 09:45:22;;;;;;;21.67;10.80;;;;;;;1.41;71.06;96097.66;5052047;28;20574;-73
2021/01/08 09:47:49;;;;;;;19.77;10.27;;;;;;;1.55;71.35;96098.75;5051015;28;20052;-74
2021/01/08 09:50:23;;;;;;;25.60;12.38;;;;;;;1.54;71.02;96097.16;5049756;28;20074;-73
2021/01/08 09:52:50;;;;;;;21.98;11.45;;;;;;;1.73;70.51;96095.56;5051646;28;20048;-73
2021/01/08 09:55:28;;;;;;;21.60;10.80;;;;;;;1.62;69.82;96103.84;5049797;28;20053;-74
2021/01/08 09:57:58;;;;;;;20.73;10.88;;;;;;;1.63;69.79;96095.56;5051216;28;20709;-73
2021/01/08 10:00:29;;;;;;;21.65;10.77;;;;;;;1.74;69.62;96091.81;5049943;28;20049;-73
2021/01/08 10:02:56;;;;;;;21.20;11.27;;;;;;;1.76;68.94;96095.00;5049628;28;20140;-73
2021/01/08 10:05:27;;;;;;;23.35;11.10;;;;;;;1.87;68.49;96097.69;5050418;28;20044;-74
2021/01/08 10:07:54;;;;;;;20.05;10.45;;;;;;;1.81;67.27;96096.91;5050282;28;20049;-73
2021/01/08 10:10:50;;;;;;;19.30;10.10;;;;;;;1.80;67.48;96089.94;5049217;28;20048;-74
2021/01/08 10:13:19;;;;;;;18.80;9.50;;;;;;;1.82;67.43;96096.63;4987754;28;20058;-74
2021/01/08 10:15:47;;;;;;;21.58;10.98;;;;;;;1.65;67.93;96093.41;5038514;28;20052;-73
2021/01/08 10:18:15;;;;;;;23.60;11.25;;;;;;;1.79;68.05;96099.88;5049945;28;20049;-73
2021/01/08 10:20:43;;;;;;;19.48;9.77;;;;;;;1.71;67.31;96086.97;5050333;28;20044;-73
2021/01/08 10:23:10;;;;;;;20.15;9.65;;;;;;;1.78;67.17;96097.44;5050379;28;20037;-73
2021/01/08 10:25:37;;;;;;;19.08;10.00;;;;;;;1.58;67.98;96106.28;5049519;28;20052;-72
2021/01/08 10:28:22;;;;;;;24.27;10.25;;;;;;;1.60;68.09;96090.72;5050659;28;20056;-73
2021/01/08 10:30:49;;;;;;;20.88;10.40;;;;;;;1.71;68.15;96097.69;5049044;28;20048;-74
2021/01/08 10:33:16;;;;;;;17.75;9.70;;;;;;;1.68;68.03;96098.25;5049830;28;20045;-73
2021/01/08 10:35:49;;;;;;;20.50;9.90;;;;;;;1.80;68.38;96096.09;5049975;28;20049;-74
2021/01/08 10:38:15;;;;;;;21.58;10.15;;;;;;;1.92;66.99;96087.75;5049952;28;20063;-74
2021/01/08 10:40:42;;;;;;;20.17;9.60;;;;;;;1.95;66.97;96091.81;5050223;28;20051;-74
2021/01/08 10:43:08;;;;;;;20.02;10.00;;;;;;;1.75;66.60;96093.41;5048408;28;20048;-74
2021/01/08 10:45:36;;;;;;;18.45;10.23;;;;;;;1.71;67.12;96089.66;5052035;28;20056;-74
2021/01/08 10:48:02;;;;;;;19.13;9.85;;;;;;;1.90;67.07;96083.75;5049225;28;20041;-74
2021/01/08 10:50:28;;;;;;;16.75;9.10;;;;;;;2.03;66.50;96077.81;5050574;28;20374;-74
2021/01/08 10:52:54;;;;;;;18.27;9.70;;;;;;;1.94;66.05;96079.47;5048979;28;20078;-74
2021/01/08 10:55:20;;;;;;;17.73;8.90;;;;;;;1.80;66.13;96077.31;5049396;28;20052;-73
2021/01/08 10:57:46;;;;;;;17.63;8.85;;;;;;;1.93;65.76;96072.47;5049513;28;20053;-74
2021/01/08 11:00:14;;;;;;;17.25;8.80;;;;;;;1.98;65.63;96072.44;5048903;28;20470;-73
2021/01/08 11:02:41;;;;;;;17.63;9.10;;;;;;;1.90;66.32;96071.13;5049173;28;20049;-73
2021/01/08 11:05:08;;;;;;;17.63;8.43;;;;;;;1.86;66.06;96071.94;5049067;28;20508;-73
2021/01/08 11:07:34;;;;;;;18.85;9.02;;;;;;;2.03;65.61;96073.25;5050269;28;20071;-73
2021/01/08 11:10:00;;;;;;;20.33;8.98;;;;;;;2.13;65.44;96066.25;5049204;28;20049;-73
2021/01/08 11:12:27;;;;;;;17.65;9.00;;;;;;;2.04;66.12;96063.34;5050110;28;20562;-73
2021/01/08 11:14:53;;;;;;;17.35;9.48;;;;;;;1.81;65.86;96062.81;5050757;28;20094;-72
2021/01/08 11:17:19;;;;;;;18.30;8.90;;;;;;;1.82;65.67;96067.09;5050144;28;20052;-73
2021/01/08 11:19:46;;;;;;;16.55;9.20;;;;;;;1.98;65.66;96059.03;5048811;28;20124;-73
2021/01/08 11:22:12;;;;;;;16.33;8.40;;;;;;;2.01;65.33;96059.31;5049527;28;20053;-73
2021/01/08 11:24:38;;;;;;;17.17;8.77;;;;;;;2.08;65.46;96059.00;5049226;28;20128;-73
2021/01/08 11:27:05;;;;;;;14.38;7.80;;;;;;;2.02;64.93;96060.09;5048862;28;20048;-74